sensor_id;sensor_type;location;lat;lon;timestamp;P1;durP1;ratioP1;P2;durP2;ratioP2
44810;SDS011;30526;52.184;4.476;2022-07-06T00:01:43;1.40;;;0.45;;
44810;SDS011;30526;52.184;4.476;2022-07-06T00:04:09;2.08;;;0.55;;
44810;SDS011;30526;52.184;4.476;2022-07-06T00:06:35;2.97;;;0.70;;
44810;SDS011;30526;52.184;4.476;2022-07-06T00:09:01;2.17;;;0.40;;
44810;SDS011;30526;52.184;4.476;2022-07-06T00:11:28;2.63;;;0.55;;
44810;SDS011;30526;52.184;4.476;2022-07-06T00:13:54;3.10;;;0.63;;
44810;SDS011;30526;52.184;4.476;2022-07-06T00:16:21;2.03;;;0.30;;
44810;SDS011;30526;52.184;4.476;2022-07-06T00:18:48;0.75;;;0.40;;
44810;SDS011;30526;52.184;4.476;2022-07-06T00:21:14;1.95;;;0.50;;
44810;SDS011;30526;52.184;4.476;2022-07-06T00:23:40;6.28;;;0.60;;
44810;SDS011;30526;52.184;4.476;2022-07-06T00:26:06;3.63;;;0.45;;
44810;SDS011;30526;52.184;4.476;2022-07-06T00:28:32;3.75;;;0.40;;
44810;SDS011;30526;52.184;4.476;2022-07-06T00:30:58;3.38;;;0.60;;
44810;SDS011;30526;52.184;4.476;2022-07-06T00:33:24;2.63;;;0.50;;
44810;SDS011;30526;52.184;4.476;2022-07-06T00:35:50;1.38;;;0.47;;
44810;SDS011;30526;52.184;4.476;2022-07-06T00:38:16;2.67;;;0.47;;
44810;SDS011;30526;52.184;4.476;2022-07-06T00:40:42;1.40;;;0.60;;
44810;SDS011;30526;52.184;4.476;2022-07-06T00:43:08;2.90;;;0.38;;
44810;SDS011;30526;52.184;4.476;2022-07-06T00:45:34;4.43;;;0.47;;
44810;SDS011;30526;52.184;4.476;2022-07-06T00:47:59;1.98;;;0.57;;
44810;SDS011;30526;52.184;4.476;2022-07-06T00:50:25;2.17;;;0.50;;
44810;SDS011;30526;52.184;4.476;2022-07-06T00:52:56;3.42;;;0.52;;
44810;SDS011;30526;52.184;4.476;2022-07-06T00:55:25;0.95;;;0.50;;
44810;SDS011;30526;52.184;4.476;2022-07-06T00:57:52;2.05;;;0.63;;
44810;SDS011;30526;52.184;4.476;2022-07-06T01:00:19;1.92;;;0.70;;
44810;SDS011;30526;52.184;4.476;2022-07-06T01:02:45;2.05;;;0.70;;
44810;SDS011;30526;52.184;4.476;2022-07-06T01:05:12;4.88;;;0.50;;
44810;SDS011;30526;52.184;4.476;2022-07-06T01:07:39;2.70;;;0.53;;
44810;SDS011;30526;52.184;4.476;2022-07-06T01:10:06;4.10;;;0.50;;
44810;SDS011;30526;52.184;4.476;2022-07-06T01:12:34;5.23;;;0.30;;
44810;SDS011;30526;52.184;4.476;2022-07-06T01:15:01;1.58;;;0.60;;
44810;SDS011;30526;52.184;4.476;2022-07-06T01:17:27;1.75;;;0.68;;
44810;SDS011;30526;52.184;4.476;2022-07-06T01:19:53;3.17;;;0.47;;
44810;SDS011;30526;52.184;4.476;2022-07-06T01:22:19;3.20;;;0.32;;
44810;SDS011;30526;52.184;4.476;2022-07-06T01:24:45;0.75;;;0.40;;
44810;SDS011;30526;52.184;4.476;2022-07-06T01:27:11;1.10;;;0.50;;
44810;SDS011;30526;52.184;4.476;2022-07-06T01:29:37;2.47;;;0.73;;
44810;SDS011;30526;52.184;4.476;2022-07-06T01:32:03;2.00;;;0.45;;
44810;SDS011;30526;52.184;4.476;2022-07-06T01:34:29;0.60;;;0.30;;
44810;SDS011;30526;52.184;4.476;2022-07-06T01:36:55;7.15;;;0.60;;
44810;SDS011;30526;52.184;4.476;2022-07-06T01:39:21;0.70;;;0.38;;
44810;SDS011;30526;52.184;4.476;2022-07-06T01:41:47;1.50;;;0.45;;
44810;SDS011;30526;52.184;4.476;2022-07-06T01:44:13;1.83;;;0.40;;
44810;SDS011;30526;52.184;4.476;2022-07-06T01:46:39;3.90;;;0.60;;
44810;SDS011;30526;52.184;4.476;2022-07-06T01:49:05;1.23;;;0.60;;
44810;SDS011;30526;52.184;4.476;2022-07-06T01:51:32;2.55;;;0.60;;
44810;SDS011;30526;52.184;4.476;2022-07-06T01:53:58;1.17;;;0.50;;
44810;SDS011;30526;52.184;4.476;2022-07-06T01:56:23;1.65;;;0.25;;
44810;SDS011;30526;52.184;4.476;2022-07-06T01:58:50;1.42;;;0.30;;
44810;SDS011;30526;52.184;4.476;2022-07-06T02:01:17;1.17;;;0.45;;
44810;SDS011;30526;52.184;4.476;2022-07-06T02:06:09;1.63;;;0.43;;
44810;SDS011;30526;52.184;4.476;2022-07-06T02:08:37;0.75;;;0.30;;
44810;SDS011;30526;52.184;4.476;2022-07-06T02:11:04;1.33;;;0.50;;
44810;SDS011;30526;52.184;4.476;2022-07-06T02:13:30;1.10;;;0.30;;
44810;SDS011;30526;52.184;4.476;2022-07-06T02:15:56;3.60;;;0.73;;
44810;SDS011;30526;52.184;4.476;2022-07-06T02:18:22;2.60;;;0.40;;
44810;SDS011;30526;52.184;4.476;2022-07-06T02:20:48;1.15;;;0.45;;
44810;SDS011;30526;52.184;4.476;2022-07-06T02:23:14;2.50;;;0.30;;
44810;SDS011;30526;52.184;4.476;2022-07-06T02:25:40;1.42;;;0.38;;
44810;SDS011;30526;52.184;4.476;2022-07-06T02:28:06;0.55;;;0.25;;
44810;SDS011;30526;52.184;4.476;2022-07-06T02:30:32;1.65;;;0.40;;
44810;SDS011;30526;52.184;4.476;2022-07-06T02:32:58;4.05;;;0.30;;
44810;SDS011;30526;52.184;4.476;2022-07-06T02:35:24;1.65;;;0.40;;
44810;SDS011;30526;52.184;4.476;2022-07-06T02:37:50;2.80;;;0.70;;
44810;SDS011;30526;52.184;4.476;2022-07-06T02:40:16;2.10;;;0.40;;
44810;SDS011;30526;52.184;4.476;2022-07-06T02:42:42;3.75;;;0.43;;
44810;SDS011;30526;52.184;4.476;2022-07-06T02:45:08;2.97;;;0.68;;
44810;SDS011;30526;52.184;4.476;2022-07-06T02:47:34;0.40;;;0.40;;
44810;SDS011;30526;52.184;4.476;2022-07-06T02:50:00;1.50;;;0.60;;
44810;SDS011;30526;52.184;4.476;2022-07-06T02:52:26;3.42;;;0.45;;
44810;SDS011;30526;52.184;4.476;2022-07-06T02:54:52;0.77;;;0.38;;
44810;SDS011;30526;52.184;4.476;2022-07-06T02:57:18;2.05;;;0.38;;
44810;SDS011;30526;52.184;4.476;2022-07-06T02:59:44;3.22;;;0.50;;
44810;SDS011;30526;52.184;4.476;2022-07-06T03:02:10;1.73;;;0.50;;
44810;SDS011;30526;52.184;4.476;2022-07-06T03:04:36;0.50;;;0.40;;
44810;SDS011;30526;52.184;4.476;2022-07-06T03:07:03;1.40;;;0.50;;
44810;SDS011;30526;52.184;4.476;2022-07-06T03:09:28;1.15;;;0.50;;
44810;SDS011;30526;52.184;4.476;2022-07-06T03:11:54;1.55;;;0.40;;
44810;SDS011;30526;52.184;4.476;2022-07-06T03:14:20;3.58;;;0.30;;
44810;SDS011;30526;52.184;4.476;2022-07-06T03:16:46;0.60;;;0.60;;
44810;SDS011;30526;52.184;4.476;2022-07-06T03:19:12;1.70;;;0.43;;
44810;SDS011;30526;52.184;4.476;2022-07-06T03:21:38;1.73;;;0.35;;
44810;SDS011;30526;52.184;4.476;2022-07-06T03:24:04;0.93;;;0.40;;
44810;SDS011;30526;52.184;4.476;2022-07-06T03:26:30;0.77;;;0.30;;
44810;SDS011;30526;52.184;4.476;2022-07-06T03:28:56;1.23;;;0.47;;
44810;SDS011;30526;52.184;4.476;2022-07-06T03:31:22;0.55;;;0.30;;
44810;SDS011;30526;52.184;4.476;2022-07-06T03:33:48;1.45;;;0.57;;
44810;SDS011;30526;52.184;4.476;2022-07-06T03:36:14;1.65;;;0.45;;
44810;SDS011;30526;52.184;4.476;2022-07-06T03:38:40;1.45;;;0.30;;
44810;SDS011;30526;52.184;4.476;2022-07-06T03:41:06;2.08;;;0.40;;
44810;SDS011;30526;52.184;4.476;2022-07-06T03:43:32;0.73;;;0.40;;
44810;SDS011;30526;52.184;4.476;2022-07-06T03:45:58;2.05;;;0.57;;
44810;SDS011;30526;52.184;4.476;2022-07-06T03:48:24;2.85;;;0.98;;
44810;SDS011;30526;52.184;4.476;2022-07-06T03:50:50;2.05;;;0.50;;
44810;SDS011;30526;52.184;4.476;2022-07-06T03:53:16;2.38;;;0.50;;
44810;SDS011;30526;52.184;4.476;2022-07-06T03:55:42;2.22;;;0.43;;
44810;SDS011;30526;52.184;4.476;2022-07-06T03:58:08;0.85;;;0.47;;
44810;SDS011;30526;52.184;4.476;2022-07-06T04:00:34;1.30;;;0.40;;
44810;SDS011;30526;52.184;4.476;2022-07-06T04:03:00;0.52;;;0.22;;
44810;SDS011;30526;52.184;4.476;2022-07-06T04:05:26;3.10;;;0.50;;
44810;SDS011;30526;52.184;4.476;2022-07-06T04:07:52;2.25;;;0.47;;
44810;SDS011;30526;52.184;4.476;2022-07-06T04:10:18;1.40;;;0.50;;
44810;SDS011;30526;52.184;4.476;2022-07-06T04:12:44;1.23;;;0.45;;
44810;SDS011;30526;52.184;4.476;2022-07-06T04:15:11;1.50;;;0.50;;
44810;SDS011;30526;52.184;4.476;2022-07-06T04:17:37;3.17;;;0.32;;
44810;SDS011;30526;52.184;4.476;2022-07-06T04:20:22;1.17;;;0.40;;
44810;SDS011;30526;52.184;4.476;2022-07-06T04:22:49;0.65;;;0.35;;
44810;SDS011;30526;52.184;4.476;2022-07-06T04:25:15;1.80;;;0.30;;
44810;SDS011;30526;52.184;4.476;2022-07-06T04:27:42;1.85;;;0.40;;
44810;SDS011;30526;52.184;4.476;2022-07-06T04:30:08;2.50;;;0.50;;
44810;SDS011;30526;52.184;4.476;2022-07-06T04:32:34;0.90;;;0.40;;
44810;SDS011;30526;52.184;4.476;2022-07-06T04:35:01;0.35;;;0.25;;
44810;SDS011;30526;52.184;4.476;2022-07-06T04:37:27;4.60;;;0.73;;
44810;SDS011;30526;52.184;4.476;2022-07-06T04:39:53;1.25;;;0.40;;
44810;SDS011;30526;52.184;4.476;2022-07-06T04:42:19;3.85;;;0.47;;
44810;SDS011;30526;52.184;4.476;2022-07-06T04:44:45;1.48;;;0.50;;
44810;SDS011;30526;52.184;4.476;2022-07-06T04:47:11;5.32;;;0.65;;
44810;SDS011;30526;52.184;4.476;2022-07-06T04:49:37;0.60;;;0.30;;
44810;SDS011;30526;52.184;4.476;2022-07-06T04:52:04;1.27;;;0.30;;
44810;SDS011;30526;52.184;4.476;2022-07-06T04:54:30;4.22;;;0.57;;
44810;SDS011;30526;52.184;4.476;2022-07-06T04:56:56;2.90;;;0.30;;
44810;SDS011;30526;52.184;4.476;2022-07-06T04:59:22;0.73;;;0.40;;
44810;SDS011;30526;52.184;4.476;2022-07-06T05:01:48;1.00;;;0.30;;
44810;SDS011;30526;52.184;4.476;2022-07-06T05:04:14;1.02;;;0.50;;
44810;SDS011;30526;52.184;4.476;2022-07-06T05:06:43;1.13;;;0.40;;
44810;SDS011;30526;52.184;4.476;2022-07-06T05:09:09;2.90;;;0.40;;
44810;SDS011;30526;52.184;4.476;2022-07-06T05:11:35;0.30;;;0.30;;
44810;SDS011;30526;52.184;4.476;2022-07-06T05:14:02;1.80;;;0.50;;
44810;SDS011;30526;52.184;4.476;2022-07-06T05:16:28;3.63;;;0.50;;
44810;SDS011;30526;52.184;4.476;2022-07-06T05:18:54;1.05;;;0.40;;
44810;SDS011;30526;52.184;4.476;2022-07-06T05:21:20;1.23;;;0.50;;
44810;SDS011;30526;52.184;4.476;2022-07-06T05:23:46;1.27;;;0.50;;
44810;SDS011;30526;52.184;4.476;2022-07-06T05:26:12;0.75;;;0.40;;
44810;SDS011;30526;52.184;4.476;2022-07-06T05:28:38;1.67;;;0.30;;
44810;SDS011;30526;52.184;4.476;2022-07-06T05:31:04;7.03;;;0.40;;
44810;SDS011;30526;52.184;4.476;2022-07-06T05:33:30;0.95;;;0.50;;
44810;SDS011;30526;52.184;4.476;2022-07-06T05:35:56;0.20;;;0.20;;
44810;SDS011;30526;52.184;4.476;2022-07-06T05:38:22;0.90;;;0.40;;
44810;SDS011;30526;52.184;4.476;2022-07-06T05:40:48;0.63;;;0.40;;
44810;SDS011;30526;52.184;4.476;2022-07-06T05:43:14;0.40;;;0.32;;
44810;SDS011;30526;52.184;4.476;2022-07-06T05:45:40;0.95;;;0.60;;
44810;SDS011;30526;52.184;4.476;2022-07-06T05:48:06;0.70;;;0.35;;
44810;SDS011;30526;52.184;4.476;2022-07-06T05:50:50;0.47;;;0.30;;
44810;SDS011;30526;52.184;4.476;2022-07-06T05:53:16;0.90;;;0.50;;
44810;SDS011;30526;52.184;4.476;2022-07-06T05:55:42;0.70;;;0.32;;
44810;SDS011;30526;52.184;4.476;2022-07-06T05:58:08;2.35;;;0.47;;
44810;SDS011;30526;52.184;4.476;2022-07-06T06:00:34;1.40;;;0.40;;
44810;SDS011;30526;52.184;4.476;2022-07-06T06:03:00;2.05;;;0.45;;
44810;SDS011;30526;52.184;4.476;2022-07-06T06:05:26;0.52;;;0.30;;
44810;SDS011;30526;52.184;4.476;2022-07-06T06:07:52;1.75;;;0.50;;
44810;SDS011;30526;52.184;4.476;2022-07-06T06:10:19;0.95;;;0.40;;
44810;SDS011;30526;52.184;4.476;2022-07-06T06:12:46;0.30;;;0.30;;
44810;SDS011;30526;52.184;4.476;2022-07-06T06:15:13;0.30;;;0.30;;
44810;SDS011;30526;52.184;4.476;2022-07-06T06:17:39;0.98;;;0.40;;
44810;SDS011;30526;52.184;4.476;2022-07-06T06:20:05;3.03;;;0.40;;
44810;SDS011;30526;52.184;4.476;2022-07-06T06:25:11;0.38;;;0.30;;
44810;SDS011;30526;52.184;4.476;2022-07-06T06:27:37;1.42;;;0.47;;
44810;SDS011;30526;52.184;4.476;2022-07-06T06:30:03;0.70;;;0.30;;
44810;SDS011;30526;52.184;4.476;2022-07-06T06:32:29;1.52;;;0.32;;
44810;SDS011;30526;52.184;4.476;2022-07-06T06:34:55;1.55;;;0.50;;
44810;SDS011;30526;52.184;4.476;2022-07-06T06:37:21;1.30;;;0.43;;
44810;SDS011;30526;52.184;4.476;2022-07-06T06:39:47;1.40;;;0.40;;
44810;SDS011;30526;52.184;4.476;2022-07-06T06:42:13;1.98;;;0.50;;
44810;SDS011;30526;52.184;4.476;2022-07-06T06:44:39;2.17;;;0.50;;
44810;SDS011;30526;52.184;4.476;2022-07-06T06:47:05;1.88;;;0.40;;
44810;SDS011;30526;52.184;4.476;2022-07-06T06:49:31;0.80;;;0.50;;
44810;SDS011;30526;52.184;4.476;2022-07-06T06:51:56;3.15;;;0.30;;
44810;SDS011;30526;52.184;4.476;2022-07-06T06:54:22;1.00;;;0.47;;
44810;SDS011;30526;52.184;4.476;2022-07-06T06:56:48;0.40;;;0.30;;
44810;SDS011;30526;52.184;4.476;2022-07-06T06:59:14;2.05;;;0.40;;
44810;SDS011;30526;52.184;4.476;2022-07-06T07:01:40;2.63;;;0.57;;
44810;SDS011;30526;52.184;4.476;2022-07-06T07:04:06;0.90;;;0.43;;
44810;SDS011;30526;52.184;4.476;2022-07-06T07:06:32;0.98;;;0.30;;
44810;SDS011;30526;52.184;4.476;2022-07-06T07:08:58;1.10;;;0.40;;
44810;SDS011;30526;52.184;4.476;2022-07-06T07:11:24;2.40;;;0.50;;
44810;SDS011;30526;52.184;4.476;2022-07-06T07:13:50;1.75;;;0.73;;
44810;SDS011;30526;52.184;4.476;2022-07-06T07:16:16;0.52;;;0.40;;
44810;SDS011;30526;52.184;4.476;2022-07-06T07:18:42;2.03;;;0.65;;
44810;SDS011;30526;52.184;4.476;2022-07-06T07:21:08;3.03;;;0.98;;
44810;SDS011;30526;52.184;4.476;2022-07-06T07:23:34;1.38;;;0.40;;
44810;SDS011;30526;52.184;4.476;2022-07-06T07:26:00;2.28;;;0.40;;
44810;SDS011;30526;52.184;4.476;2022-07-06T07:28:26;1.83;;;0.40;;
44810;SDS011;30526;52.184;4.476;2022-07-06T07:30:52;3.15;;;0.40;;
44810;SDS011;30526;52.184;4.476;2022-07-06T07:33:18;0.43;;;0.22;;
44810;SDS011;30526;52.184;4.476;2022-07-06T07:35:44;1.70;;;0.50;;
44810;SDS011;30526;52.184;4.476;2022-07-06T07:38:10;0.73;;;0.35;;
44810;SDS011;30526;52.184;4.476;2022-07-06T07:40:36;1.02;;;0.40;;
44810;SDS011;30526;52.184;4.476;2022-07-06T07:43:02;1.75;;;0.43;;
44810;SDS011;30526;52.184;4.476;2022-07-06T07:45:28;2.97;;;0.38;;
44810;SDS011;30526;52.184;4.476;2022-07-06T07:47:54;0.73;;;0.30;;
44810;SDS011;30526;52.184;4.476;2022-07-06T07:50:20;0.88;;;0.13;;
44810;SDS011;30526;52.184;4.476;2022-07-06T07:52:46;0.57;;;0.40;;
44810;SDS011;30526;52.184;4.476;2022-07-06T07:55:12;0.95;;;0.30;;
44810;SDS011;30526;52.184;4.476;2022-07-06T07:57:38;1.85;;;0.40;;
44810;SDS011;30526;52.184;4.476;2022-07-06T08:00:04;0.52;;;0.40;;
44810;SDS011;30526;52.184;4.476;2022-07-06T08:02:31;0.53;;;0.40;;
44810;SDS011;30526;52.184;4.476;2022-07-06T08:04:57;1.38;;;0.38;;
44810;SDS011;30526;52.184;4.476;2022-07-06T08:07:23;0.90;;;0.30;;
44810;SDS011;30526;52.184;4.476;2022-07-06T08:09:48;1.45;;;0.40;;
44810;SDS011;30526;52.184;4.476;2022-07-06T08:12:15;0.82;;;0.43;;
44810;SDS011;30526;52.184;4.476;2022-07-06T08:14:40;1.08;;;0.30;;
44810;SDS011;30526;52.184;4.476;2022-07-06T08:17:06;0.70;;;0.35;;
44810;SDS011;30526;52.184;4.476;2022-07-06T08:19:32;0.68;;;0.50;;
44810;SDS011;30526;52.184;4.476;2022-07-06T08:21:58;0.50;;;0.20;;
44810;SDS011;30526;52.184;4.476;2022-07-06T08:24:24;0.20;;;0.20;;
44810;SDS011;30526;52.184;4.476;2022-07-06T08:26:50;0.82;;;0.40;;
44810;SDS011;30526;52.184;4.476;2022-07-06T08:29:16;1.40;;;0.45;;
44810;SDS011;30526;52.184;4.476;2022-07-06T08:31:42;2.20;;;0.35;;
44810;SDS011;30526;52.184;4.476;2022-07-06T08:34:08;0.40;;;0.30;;
44810;SDS011;30526;52.184;4.476;2022-07-06T08:36:34;1.17;;;0.35;;
44810;SDS011;30526;52.184;4.476;2022-07-06T08:39:00;0.82;;;0.20;;
44810;SDS011;30526;52.184;4.476;2022-07-06T08:41:28;1.35;;;0.40;;
44810;SDS011;30526;52.184;4.476;2022-07-06T08:43:55;2.20;;;0.30;;
44810;SDS011;30526;52.184;4.476;2022-07-06T08:46:21;0.35;;;0.10;;
44810;SDS011;30526;52.184;4.476;2022-07-06T08:48:47;0.57;;;0.20;;
44810;SDS011;30526;52.184;4.476;2022-07-06T08:51:14;2.42;;;0.50;;
44810;SDS011;30526;52.184;4.476;2022-07-06T08:53:43;1.08;;;0.20;;
44810;SDS011;30526;52.184;4.476;2022-07-06T08:56:09;1.05;;;0.40;;
44810;SDS011;30526;52.184;4.476;2022-07-06T08:58:35;0.77;;;0.40;;
44810;SDS011;30526;52.184;4.476;2022-07-06T09:01:02;1.00;;;0.30;;
44810;SDS011;30526;52.184;4.476;2022-07-06T09:03:28;2.58;;;0.40;;
44810;SDS011;30526;52.184;4.476;2022-07-06T09:05:56;0.30;;;0.30;;
44810;SDS011;30526;52.184;4.476;2022-07-06T09:08:24;1.15;;;0.38;;
44810;SDS011;30526;52.184;4.476;2022-07-06T09:10:52;2.85;;;0.30;;
44810;SDS011;30526;52.184;4.476;2022-07-06T09:13:18;1.20;;;0.60;;
44810;SDS011;30526;52.184;4.476;2022-07-06T09:15:44;0.15;;;0.15;;
44810;SDS011;30526;52.184;4.476;2022-07-06T09:18:10;0.30;;;0.30;;
44810;SDS011;30526;52.184;4.476;2022-07-06T09:20:36;1.15;;;0.40;;
44810;SDS011;30526;52.184;4.476;2022-07-06T09:23:03;0.80;;;0.50;;
44810;SDS011;30526;52.184;4.476;2022-07-06T09:27:56;1.35;;;0.28;;
44810;SDS011;30526;52.184;4.476;2022-07-06T09:32:50;1.05;;;0.22;;
44810;SDS011;30526;52.184;4.476;2022-07-06T09:37:41;2.22;;;0.20;;
44810;SDS011;30526;52.184;4.476;2022-07-06T09:40:15;2.28;;;0.50;;
44810;SDS011;30526;52.184;4.476;2022-07-06T09:42:42;0.70;;;0.55;;
44810;SDS011;30526;52.184;4.476;2022-07-06T09:45:08;0.30;;;0.30;;
44810;SDS011;30526;52.184;4.476;2022-07-06T09:47:34;1.08;;;0.30;;
44810;SDS011;30526;52.184;4.476;2022-07-06T09:50:02;1.75;;;0.30;;
44810;SDS011;30526;52.184;4.476;2022-07-06T09:52:33;0.90;;;0.30;;
44810;SDS011;30526;52.184;4.476;2022-07-06T09:54:59;0.75;;;0.22;;
44810;SDS011;30526;52.184;4.476;2022-07-06T09:57:25;0.35;;;0.35;;
44810;SDS011;30526;52.184;4.476;2022-07-06T09:59:51;0.38;;;0.30;;
44810;SDS011;30526;52.184;4.476;2022-07-06T10:02:17;1.35;;;0.40;;
44810;SDS011;30526;52.184;4.476;2022-07-06T10:04:47;1.15;;;0.38;;
44810;SDS011;30526;52.184;4.476;2022-07-06T10:07:14;3.67;;;0.40;;
44810;SDS011;30526;52.184;4.476;2022-07-06T10:09:40;0.43;;;0.17;;
44810;SDS011;30526;52.184;4.476;2022-07-06T10:12:06;0.50;;;0.20;;
44810;SDS011;30526;52.184;4.476;2022-07-06T10:14:33;0.40;;;0.30;;
44810;SDS011;30526;52.184;4.476;2022-07-06T10:17:00;0.10;;;0.10;;
44810;SDS011;30526;52.184;4.476;2022-07-06T10:19:27;1.40;;;0.25;;
44810;SDS011;30526;52.184;4.476;2022-07-06T10:21:53;1.67;;;0.20;;
44810;SDS011;30526;52.184;4.476;2022-07-06T10:24:19;2.75;;;0.38;;
44810;SDS011;30526;52.184;4.476;2022-07-06T10:26:46;2.75;;;0.30;;
44810;SDS011;30526;52.184;4.476;2022-07-06T10:29:12;0.22;;;0.20;;
44810;SDS011;30526;52.184;4.476;2022-07-06T10:31:45;1.17;;;0.40;;
44810;SDS011;30526;52.184;4.476;2022-07-06T10:34:13;1.20;;;0.50;;
44810;SDS011;30526;52.184;4.476;2022-07-06T10:36:41;1.00;;;0.30;;
44810;SDS011;30526;52.184;4.476;2022-07-06T10:39:08;1.17;;;0.38;;
44810;SDS011;30526;52.184;4.476;2022-07-06T10:41:53;1.13;;;0.50;;
44810;SDS011;30526;52.184;4.476;2022-07-06T10:44:26;1.13;;;0.40;;
44810;SDS011;30526;52.184;4.476;2022-07-06T10:46:53;1.70;;;0.40;;
44810;SDS011;30526;52.184;4.476;2022-07-06T10:49:20;0.60;;;0.30;;
44810;SDS011;30526;52.184;4.476;2022-07-06T10:51:47;1.98;;;0.50;;
44810;SDS011;30526;52.184;4.476;2022-07-06T10:54:14;2.22;;;0.30;;
44810;SDS011;30526;52.184;4.476;2022-07-06T10:56:44;5.75;;;1.00;;
44810;SDS011;30526;52.184;4.476;2022-07-06T10:59:23;3.05;;;0.30;;
44810;SDS011;30526;52.184;4.476;2022-07-06T11:04:34;0.43;;;0.30;;
44810;SDS011;30526;52.184;4.476;2022-07-06T11:07:07;1.88;;;0.50;;
44810;SDS011;30526;52.184;4.476;2022-07-06T11:09:34;1.55;;;0.30;;
44810;SDS011;30526;52.184;4.476;2022-07-06T11:12:11;0.50;;;0.40;;
44810;SDS011;30526;52.184;4.476;2022-07-06T11:14:37;2.03;;;0.77;;
44810;SDS011;30526;52.184;4.476;2022-07-06T11:17:03;1.58;;;0.70;;
44810;SDS011;30526;52.184;4.476;2022-07-06T11:19:30;1.63;;;0.40;;
44810;SDS011;30526;52.184;4.476;2022-07-06T11:22:06;1.85;;;0.57;;
44810;SDS011;30526;52.184;4.476;2022-07-06T11:24:33;1.75;;;0.60;;
44810;SDS011;30526;52.184;4.476;2022-07-06T11:26:59;3.47;;;0.80;;
44810;SDS011;30526;52.184;4.476;2022-07-06T11:29:26;2.13;;;0.50;;
44810;SDS011;30526;52.184;4.476;2022-07-06T11:31:53;1.65;;;0.55;;
44810;SDS011;30526;52.184;4.476;2022-07-06T11:34:24;2.47;;;0.60;;
44810;SDS011;30526;52.184;4.476;2022-07-06T11:36:57;4.50;;;0.82;;
44810;SDS011;30526;52.184;4.476;2022-07-06T11:39:29;2.40;;;0.73;;
44810;SDS011;30526;52.184;4.476;2022-07-06T11:41:56;1.52;;;0.60;;
44810;SDS011;30526;52.184;4.476;2022-07-06T11:44:22;4.50;;;0.90;;
44810;SDS011;30526;52.184;4.476;2022-07-06T11:46:48;2.00;;;0.60;;
44810;SDS011;30526;52.184;4.476;2022-07-06T11:49:14;1.92;;;0.52;;
44810;SDS011;30526;52.184;4.476;2022-07-06T11:51:41;1.00;;;0.60;;
44810;SDS011;30526;52.184;4.476;2022-07-06T11:54:12;3.20;;;0.85;;
44810;SDS011;30526;52.184;4.476;2022-07-06T11:56:45;0.60;;;0.60;;
44810;SDS011;30526;52.184;4.476;2022-07-06T11:59:12;2.45;;;0.40;;
44810;SDS011;30526;52.184;4.476;2022-07-06T12:01:38;2.17;;;0.77;;
44810;SDS011;30526;52.184;4.476;2022-07-06T12:04:08;1.08;;;0.60;;
44810;SDS011;30526;52.184;4.476;2022-07-06T12:06:34;1.15;;;0.50;;
44810;SDS011;30526;52.184;4.476;2022-07-06T12:09:00;2.25;;;0.73;;
44810;SDS011;30526;52.184;4.476;2022-07-06T12:11:32;2.00;;;0.80;;
44810;SDS011;30526;52.184;4.476;2022-07-06T12:14:00;1.55;;;0.88;;
44810;SDS011;30526;52.184;4.476;2022-07-06T12:16:36;2.20;;;0.68;;
44810;SDS011;30526;52.184;4.476;2022-07-06T12:19:03;1.58;;;0.70;;
44810;SDS011;30526;52.184;4.476;2022-07-06T12:21:29;1.13;;;0.60;;
44810;SDS011;30526;52.184;4.476;2022-07-06T12:23:55;2.25;;;0.80;;
44810;SDS011;30526;52.184;4.476;2022-07-06T12:26:22;1.17;;;0.70;;
44810;SDS011;30526;52.184;4.476;2022-07-06T12:29:03;0.68;;;0.60;;
44810;SDS011;30526;52.184;4.476;2022-07-06T12:31:34;1.23;;;0.70;;
44810;SDS011;30526;52.184;4.476;2022-07-06T12:34:00;1.67;;;0.90;;
44810;SDS011;30526;52.184;4.476;2022-07-06T12:36:26;2.05;;;0.98;;
44810;SDS011;30526;52.184;4.476;2022-07-06T12:38:53;2.70;;;1.05;;
44810;SDS011;30526;52.184;4.476;2022-07-06T12:41:24;2.55;;;0.88;;
44810;SDS011;30526;52.184;4.476;2022-07-06T12:43:59;8.60;;;1.00;;
44810;SDS011;30526;52.184;4.476;2022-07-06T12:46:26;1.23;;;0.70;;
44810;SDS011;30526;52.184;4.476;2022-07-06T12:48:54;1.67;;;0.80;;
44810;SDS011;30526;52.184;4.476;2022-07-06T12:51:20;2.88;;;0.90;;
44810;SDS011;30526;52.184;4.476;2022-07-06T12:53:46;3.70;;;1.10;;
44810;SDS011;30526;52.184;4.476;2022-07-06T12:56:16;5.20;;;1.20;;
44810;SDS011;30526;52.184;4.476;2022-07-06T13:01:23;3.08;;;1.20;;
44810;SDS011;30526;52.184;4.476;2022-07-06T13:03:53;2.22;;;1.13;;
44810;SDS011;30526;52.184;4.476;2022-07-06T13:06:30;2.85;;;1.10;;
44810;SDS011;30526;52.184;4.476;2022-07-06T13:08:56;3.85;;;1.35;;
44810;SDS011;30526;52.184;4.476;2022-07-06T13:11:22;2.90;;;1.40;;
44810;SDS011;30526;52.184;4.476;2022-07-06T13:13:48;2.33;;;1.50;;
44810;SDS011;30526;52.184;4.476;2022-07-06T13:16:14;5.38;;;1.92;;
44810;SDS011;30526;52.184;4.476;2022-07-06T13:18:41;4.72;;;2.20;;
44810;SDS011;30526;52.184;4.476;2022-07-06T13:21:06;6.55;;;2.50;;
44810;SDS011;30526;52.184;4.476;2022-07-06T13:23:32;3.88;;;2.30;;
44810;SDS011;30526;52.184;4.476;2022-07-06T13:25:58;3.75;;;2.15;;
44810;SDS011;30526;52.184;4.476;2022-07-06T13:28:25;5.10;;;2.20;;
44810;SDS011;30526;52.184;4.476;2022-07-06T13:30:51;4.93;;;2.35;;
44810;SDS011;30526;52.184;4.476;2022-07-06T13:33:16;4.53;;;2.90;;
44810;SDS011;30526;52.184;4.476;2022-07-06T13:35:42;9.05;;;3.38;;
44810;SDS011;30526;52.184;4.476;2022-07-06T13:38:08;8.23;;;5.10;;
44810;SDS011;30526;52.184;4.476;2022-07-06T13:40:34;13.98;;;5.45;;
44810;SDS011;30526;52.184;4.476;2022-07-06T13:43:00;9.00;;;6.20;;
44810;SDS011;30526;52.184;4.476;2022-07-06T13:45:26;10.45;;;5.75;;
44810;SDS011;30526;52.184;4.476;2022-07-06T13:47:52;11.77;;;6.57;;
44810;SDS011;30526;52.184;4.476;2022-07-06T13:50:18;13.35;;;7.28;;
44810;SDS011;30526;52.184;4.476;2022-07-06T13:52:44;11.23;;;6.88;;
44810;SDS011;30526;52.184;4.476;2022-07-06T13:55:10;14.60;;;7.70;;
44810;SDS011;30526;52.184;4.476;2022-07-06T13:57:36;18.05;;;6.93;;
44810;SDS011;30526;52.184;4.476;2022-07-06T14:00:06;14.60;;;8.23;;
44810;SDS011;30526;52.184;4.476;2022-07-06T14:02:32;13.32;;;7.75;;
44810;SDS011;30526;52.184;4.476;2022-07-06T14:04:58;15.13;;;8.65;;
44810;SDS011;30526;52.184;4.476;2022-07-06T14:07:24;12.98;;;7.45;;
44810;SDS011;30526;52.184;4.476;2022-07-06T14:09:50;13.38;;;8.55;;
44810;SDS011;30526;52.184;4.476;2022-07-06T14:12:17;14.63;;;7.18;;
44810;SDS011;30526;52.184;4.476;2022-07-06T14:14:44;11.35;;;5.55;;
44810;SDS011;30526;52.184;4.476;2022-07-06T14:17:10;13.93;;;8.48;;
44810;SDS011;30526;52.184;4.476;2022-07-06T14:19:37;12.32;;;7.63;;
44810;SDS011;30526;52.184;4.476;2022-07-06T14:22:03;12.95;;;7.30;;
44810;SDS011;30526;52.184;4.476;2022-07-06T14:24:29;11.38;;;6.03;;
44810;SDS011;30526;52.184;4.476;2022-07-06T14:26:55;9.85;;;5.82;;
44810;SDS011;30526;52.184;4.476;2022-07-06T14:29:21;12.73;;;7.22;;
44810;SDS011;30526;52.184;4.476;2022-07-06T14:31:47;9.18;;;5.63;;
44810;SDS011;30526;52.184;4.476;2022-07-06T14:34:13;12.55;;;4.78;;
44810;SDS011;30526;52.184;4.476;2022-07-06T14:36:39;8.80;;;3.78;;
44810;SDS011;30526;52.184;4.476;2022-07-06T14:39:05;10.43;;;3.60;;
44810;SDS011;30526;52.184;4.476;2022-07-06T14:41:31;6.57;;;3.40;;
44810;SDS011;30526;52.184;4.476;2022-07-06T14:43:57;9.80;;;2.95;;
44810;SDS011;30526;52.184;4.476;2022-07-06T14:46:23;8.27;;;2.78;;
44810;SDS011;30526;52.184;4.476;2022-07-06T14:48:49;9.30;;;2.53;;
44810;SDS011;30526;52.184;4.476;2022-07-06T14:51:15;6.60;;;2.50;;
44810;SDS011;30526;52.184;4.476;2022-07-06T14:53:41;9.68;;;2.70;;
44810;SDS011;30526;52.184;4.476;2022-07-06T14:56:07;7.95;;;1.80;;
44810;SDS011;30526;52.184;4.476;2022-07-06T14:58:33;4.28;;;1.52;;
44810;SDS011;30526;52.184;4.476;2022-07-06T15:00:59;7.13;;;2.60;;
44810;SDS011;30526;52.184;4.476;2022-07-06T15:03:26;8.45;;;1.70;;